Time;durP1;ratioP1;P1;durP2;ratioP2;P2;SDS_P1;SDS_P2;PMS_P1;PMS_P2;Temp;Humidity;BMP_temperature;BMP_pressure;BME280_temperature;BME280_humidity;BME280_pressure;Samples;Min_cycle;Max_cycle;Signal;HPM_P1;HPM_P2
2023/12/09 00:01:03;;;;;;;47.40;27.83;;;;;;;0.36;100.00;95504.41;7402099;19;20394;-88
2023/12/09 00:03:31;;;;;;;53.07;27.27;;;;;;;1.07;100.00;95607.13;7400086;19;20363;-88
2023/12/09 00:05:59;;;;;;;57.17;27.00;;;;;;;1.73;100.00;95710.66;7399718;19;20462;-89
2023/12/09 00:08:26;;;;;;;69.30;30.07;;;;;;;1.11;100.00;95623.66;7399889;19;20379;-88
2023/12/09 00:10:54;;;;;;;82.17;32.73;;;;;;;0.74;100.00;95575.50;7399666;19;20489;-89
2023/12/09 00:13:21;;;;;;;59.80;30.60;;;;;;;1.13;100.00;95630.13;7400057;19;20379;-88
2023/12/09 00:15:48;;;;;;;55.40;26.53;;;;;;;1.30;100.00;95629.91;7400176;19;20392;-88
2023/12/09 00:18:17;;;;;;;57.90;27.50;;;;;;;1.36;100.00;95646.19;7399029;19;20435;-89
2023/12/09 00:20:45;;;;;;;59.47;27.10;;;;;;;1.26;100.00;95636.59;7399257;19;20399;-88
2023/12/09 00:23:13;;;;;;;67.37;27.80;;;;;;;1.35;100.00;95642.84;7399230;19;20386;-89
2023/12/09 00:25:40;;;;;;;41.20;24.83;;;;;;;1.08;100.00;95593.16;7399336;19;20395;-87
2023/12/09 00:28:08;;;;;;;49.17;25.80;;;;;;;0.99;100.00;95590.31;7399181;19;20398;-88
2023/12/09 00:30:36;;;;;;;46.50;25.60;;;;;;;1.84;100.00;95714.81;7399393;19;20372;-87
2023/12/09 00:33:04;;;;;;;49.53;25.50;;;;;;;1.36;100.00;95635.84;7399768;19;20377;-88
2023/12/09 00:35:32;;;;;;;51.77;28.43;;;;;;;1.37;100.00;95651.09;7398955;19;20394;-89
2023/12/09 00:38:00;;;;;;;51.97;27.73;;;;;;;1.04;100.00;95599.88;7398952;19;20707;-88
2023/12/09 00:40:27;;;;;;;67.47;34.73;;;;;;;1.22;100.00;95622.66;7398837;19;20411;-88
2023/12/09 00:42:55;;;;;;;55.90;28.30;;;;;;;1.17;100.00;95622.66;7399137;19;20876;-88
2023/12/09 00:45:24;;;;;;;52.30;29.03;;;;;;;1.03;100.00;95591.38;7398750;19;20426;-91
2023/12/09 00:47:52;;;;;;;56.00;29.77;;;;;;;1.47;100.00;95645.97;7399423;19;20398;-88
2023/12/09 00:50:20;;;;;;;60.83;26.73;;;;;;;1.00;100.00;95581.50;7400703;19;20387;-89
2023/12/09 00:52:48;;;;;;;57.27;27.07;;;;;;;1.48;100.00;95664.84;7396955;19;20412;-88
2023/12/09 00:55:15;;;;;;;55.80;27.37;;;;;;;1.36;100.00;95646.19;7399081;19;20386;-89
2023/12/09 00:57:42;;;;;;;58.83;26.30;;;;;;;1.84;100.00;95707.03;7397260;19;20387;-88
2023/12/09 01:00:18;;;;;;;49.17;24.57;;;;;;;0.88;100.00;95560.31;7398378;19;20378;-89
2023/12/09 01:02:47;;;;;;;49.43;26.43;;;;;;;1.54;100.00;95668.97;7397389;19;20421;-89
2023/12/09 01:05:15;;;;;;;47.47;25.80;;;;;;;1.43;100.00;95654.47;7398789;19;20365;-89
2023/12/09 01:07:43;;;;;;;52.57;26.60;;;;;;;1.02;100.00;95589.78;7396168;19;20465;-89
2023/12/09 01:10:10;;;;;;;53.90;27.97;;;;;;;1.40;100.00;95647.22;7398430;19;20411;-89
2023/12/09 01:12:38;;;;;;;55.80;27.17;;;;;;;1.52;100.00;95674.41;7396859;19;20414;-89
2023/12/09 01:15:05;;;;;;;55.77;26.60;;;;;;;0.90;100.00;95571.97;7397743;19;20888;-89
2023/12/09 01:17:33;;;;;;;49.10;24.13;;;;;;;1.02;100.00;95589.00;7397742;19;20469;-89
2023/12/09 01:20:00;;;;;;;51.70;24.33;;;;;;;1.22;100.00;95620.06;7397951;19;20370;-89
2023/12/09 01:22:28;;;;;;;51.37;25.87;;;;;;;1.49;100.00;95663.78;7396529;19;20481;-89
2023/12/09 01:24:56;;;;;;;75.97;29.07;;;;;;;1.42;100.00;95658.09;7398042;19;20377;-89
2023/12/09 01:27:23;;;;;;;49.00;26.70;;;;;;;1.64;100.00;95689.66;7398012;19;20410;-89
2023/12/09 01:29:51;;;;;;;55.43;27.43;;;;;;;1.57;100.00;95681.41;7397548;19;20378;-90
2023/12/09 01:32:19;;;;;;;54.77;27.50;;;;;;;1.05;100.00;95619.53;7396714;19;20398;-90
2023/12/09 01:34:46;;;;;;;57.40;27.17;;;;;;;1.16;100.00;95628.81;7403786;19;20888;-89
2023/12/09 01:37:14;;;;;;;52.37;27.70;;;;;;;1.19;100.00;95625.75;7403731;19;20900;-88
2023/12/09 01:39:41;;;;;;;47.40;26.07;;;;;;;1.78;100.00;95706.25;7397340;19;20366;-89
2023/12/09 01:42:09;;;;;;;47.03;25.73;;;;;;;1.11;100.00;95626.25;7396339;19;20407;-89
2023/12/09 01:44:37;;;;;;;43.07;23.23;;;;;;;1.65;100.00;95724.84;7397184;19;20383;-89
2023/12/09 01:47:06;;;;;;;47.87;25.17;;;;;;;1.33;100.00;95696.59;7397612;19;20394;-89
2023/12/09 01:49:34;;;;;;;59.23;25.10;;;;;;;1.43;100.00;95696.63;7397134;19;20382;-89
2023/12/09 01:52:02;;;;;;;58.43;27.43;;;;;;;1.36;100.00;95672.81;7395542;19;20979;-89
2023/12/09 01:54:29;;;;;;;55.00;28.03;;;;;;;1.08;100.00;95627.53;7396756;19;20402;-88
2023/12/09 01:56:57;;;;;;;69.60;23.33;;;;;;;1.44;100.00;95685.25;7395868;19;20413;-91
2023/12/09 01:59:25;;;;;;;46.83;25.33;;;;;;;1.33;100.00;95652.66;7395414;19;20393;-90
2023/12/09 02:01:59;;;;;;;55.27;25.43;;;;;;;1.44;100.00;95659.41;7395818;19;20410;-90
2023/12/09 02:04:40;;;;;;;52.40;26.00;;;;;;;1.92;100.00;95734.19;7396199;19;20865;-90
2023/12/09 02:07:07;;;;;;;57.47;27.13;;;;;;;1.82;100.00;95730.56;7396604;19;20387;-90
2023/12/09 02:09:41;;;;;;;50.37;22.23;;;;;;;1.19;100.00;95625.75;7398703;19;20371;-90
2023/12/09 02:12:26;;;;;;;52.60;26.10;;;;;;;1.98;100.00;95741.72;7395540;19;20740;-90
2023/12/09 02:14:54;;;;;;;60.63;26.10;;;;;;;1.98;100.00;95743.53;7396559;19;20777;-90
2023/12/09 02:17:41;;;;;;;64.87;28.63;;;;;;;1.50;100.00;95686.81;7397340;19;20390;-89
2023/12/09 02:20:12;;;;;;;63.53;28.23;;;;;;;1.03;100.00;95627.53;7401104;19;20370;-89
2023/12/09 02:22:40;;;;;;;64.63;28.50;;;;;;;1.60;100.00;95703.38;7401555;19;20386;-89
2023/12/09 02:25:08;;;;;;;70.67;27.87;;;;;;;1.39;100.00;95666.34;7403931;19;20390;-89
2023/12/09 02:27:48;;;;;;;66.33;26.57;;;;;;;1.36;100.00;95654.72;7404043;19;20484;-89
2023/12/09 02:30:28;;;;;;;62.17;28.77;;;;;;;1.90;100.00;95733.69;7403285;19;20362;-89
2023/12/09 02:32:58;;;;;;;54.37;23.97;;;;;;;1.34;100.00;95643.09;7404072;19;20469;-90
2023/12/09 02:35:29;;;;;;;66.80;27.30;;;;;;;1.10;100.00;95606.59;7403613;19;20383;-90
2023/12/09 02:37:59;;;;;;;62.70;25.57;;;;;;;1.29;100.00;95661.94;7402886;19;20385;-89
2023/12/09 02:40:28;;;;;;;70.40;29.00;;;;;;;1.27;100.00;95647.72;7402722;19;20890;-89
2023/12/09 02:42:56;;;;;;;68.37;26.80;;;;;;;1.03;100.00;95619.78;7403377;19;20479;-89
2023/12/09 02:45:24;;;;;;;62.03;26.70;;;;;;;1.32;100.00;95663.25;7403612;19;20394;-90
2023/12/09 02:47:51;;;;;;;73.23;26.40;;;;;;;1.48;100.00;95688.88;7402821;19;20378;-90
2023/12/09 02:50:19;;;;;;;60.07;27.50;;;;;;;1.20;100.00;95641.00;7403146;19;20390;-89
2023/12/09 02:52:46;;;;;;;57.57;23.47;;;;;;;1.14;100.00;95630.88;7399632;19;20940;-89
2023/12/09 02:55:14;;;;;;;61.13;28.23;;;;;;;1.94;100.00;95747.66;7402419;19;20418;-89
2023/12/09 02:57:41;;;;;;;53.80;27.00;;;;;;;1.21;100.00;95639.97;7400338;19;20419;-90
2023/12/09 03:00:09;;;;;;;54.13;25.50;;;;;;;1.06;100.00;95629.59;7401852;19;20371;-89
2023/12/09 03:02:37;;;;;;;57.63;25.33;;;;;;;1.14;100.00;95643.81;7400365;19;20401;-89
2023/12/09 03:05:04;;;;;;;60.33;24.70;;;;;;;1.50;100.00;95709.28;7402793;19;20367;-89
2023/12/09 03:07:32;;;;;;;58.33;24.83;;;;;;;0.85;100.00;95600.34;7404245;19;20366;-89
2023/12/09 03:10:00;;;;;;;88.70;26.90;;;;;;;0.79;100.00;95588.44;7402681;19;20391;-89
2023/12/09 03:12:27;;;;;;;59.30;23.73;;;;;;;1.27;100.00;95614.13;7400218;19;20766;-89
2023/12/09 03:14:55;;;;;;;65.13;26.60;;;;;;;1.79;100.00;95700.03;7402307;19;20393;-89
2023/12/09 03:17:24;;;;;;;49.67;24.03;;;;;;;1.65;100.00;95687.88;7402066;19;20681;-90
2023/12/09 03:19:51;;;;;;;41.37;23.20;;;;;;;0.89;100.00;95593.63;7399679;19;20374;-90
2023/12/09 03:22:19;;;;;;;42.03;24.40;;;;;;;1.31;100.00;95649.56;7399664;19;20496;-90
2023/12/09 03:24:50;;;;;;;45.97;22.80;;;;;;;1.34;100.00;95656.78;7401257;19;20381;-89
2023/12/09 03:27:17;;;;;;;49.97;26.77;;;;;;;1.23;100.00;95634.53;7402114;19;20380;-89
2023/12/09 03:29:45;;;;;;;52.30;23.60;;;;;;;1.16;100.00;95632.22;7399738;19;20400;-89
2023/12/09 03:32:12;;;;;;;59.57;26.23;;;;;;;1.74;100.00;95735.47;7399617;19;20418;-89
2023/12/09 03:34:40;;;;;;;45.93;25.47;;;;;;;0.86;100.00;95595.94;7401017;19;20857;-89
2023/12/09 03:37:07;;;;;;;51.73;28.17;;;;;;;1.51;100.00;95706.47;7401419;19;20402;-90
2023/12/09 03:39:35;;;;;;;42.87;22.13;;;;;;;1.28;100.00;95669.94;7399503;19;20384;-89
2023/12/09 03:42:02;;;;;;;46.20;22.80;;;;;;;1.44;100.00;95690.44;7399559;19;20471;-89
2023/12/09 03:44:30;;;;;;;56.37;24.50;;;;;;;1.27;100.00;95668.41;7402158;19;20375;-90
2023/12/09 03:46:59;;;;;;;58.77;24.00;;;;;;;1.56;100.00;95717.84;7400994;19;20386;-90
2023/12/09 03:49:32;;;;;;;57.40;25.80;;;;;;;1.26;100.00;95661.66;7401189;19;20388;-89
2023/12/09 03:52:00;;;;;;;47.60;24.93;;;;;;;0.47;100.00;95549.88;7399852;19;20439;-89
2023/12/09 03:54:28;;;;;;;64.33;26.00;;;;;;;1.08;100.00;95650.00;7400977;19;20364;-90
2023/12/09 03:56:55;;;;;;;63.27;23.97;;;;;;;0.89;100.00;95629.78;7399431;19;20948;-89
2023/12/09 03:59:23;;;;;;;80.97;28.33;;;;;;;1.09;100.00;95670.41;7399371;19;20938;-89
2023/12/09 04:01:51;;;;;;;93.97;28.33;;;;;;;1.16;100.00;95672.75;7399666;19;20426;-89
2023/12/09 04:04:26;;;;;;;68.93;25.90;;;;;;;1.05;100.00;95659.03;7400494;19;20469;-89
2023/12/09 04:07:01;;;;;;;77.57;27.30;;;;;;;1.33;100.00;95695.81;7403811;19;20431;-90
2023/12/09 04:09:31;;;;;;;109.83;32.40;;;;;;;1.27;100.00;95676.16;7400835;19;20378;-89
2023/12/09 04:11:59;;;;;;;83.97;27.07;;;;;;;1.75;100.00;95749.97;7398496;19;20434;-89
2023/12/09 04:14:26;;;;;;;94.60;27.43;;;;;;;1.04;100.00;95631.66;7400095;19;20366;-90
2023/12/09 04:16:54;;;;;;;59.30;24.50;;;;;;;1.20;100.00;95663.47;7400304;19;20370;-89
2023/12/09 04:19:21;;;;;;;78.57;28.30;;;;;;;1.43;100.00;95682.91;7399649;19;20394;-89
2023/12/09 04:21:49;;;;;;;99.47;30.20;;;;;;;1.37;100.00;95682.13;7398201;19;20938;-89
2023/12/09 04:24:16;;;;;;;69.90;27.27;;;;;;;1.40;100.00;95686.78;7399633;19;20387;-90
2023/12/09 04:26:44;;;;;;;87.40;29.97;;;;;;;1.16;100.00;95637.38;7400270;19;20387;-89
2023/12/09 04:29:12;;;;;;;70.60;27.13;;;;;;;1.17;100.00;95628.59;7399910;19;20381;-90
2023/12/09 04:31:40;;;;;;;60.23;26.00;;;;;;;1.27;100.00;95655.47;7398399;19;20419;-89
2023/12/09 04:34:07;;;;;;;85.13;28.60;;;;;;;1.56;100.00;95679.81;7401550;19;20412;-90
2023/12/09 04:36:35;;;;;;;67.70;24.90;;;;;;;1.36;100.00;95651.38;7399751;19;20410;-89
2023/12/09 04:39:03;;;;;;;60.57;27.00;;;;;;;1.26;100.00;95634.03;7399114;19;20390;-90
2023/12/09 04:41:31;;;;;;;73.50;26.57;;;;;;;1.36;100.00;95665.06;7395910;19;20415;-90
2023/12/09 04:43:58;;;;;;;77.67;28.10;;;;;;;1.41;100.00;95662.47;7399194;19;20426;-90
2023/12/09 04:46:26;;;;;;;57.60;26.37;;;;;;;1.70;100.00;95713.75;7399133;19;20877;-90
2023/12/09 04:48:53;;;;;;;64.07;27.00;;;;;;;0.96;100.00;95619.22;7398360;19;20367;-90
2023/12/09 04:51:21;;;;;;;55.83;28.23;;;;;;;1.58;100.00;95692.53;7397966;19;20422;-90
2023/12/09 04:53:48;;;;;;;94.03;30.03;;;;;;;0.77;100.00;95562.13;7399528;19;20381;-90
2023/12/09 04:56:16;;;;;;;92.70;33.33;;;;;;;1.67;100.00;95690.97;7398769;19;20465;-90
2023/12/09 04:58:44;;;;;;;71.23;29.47;;;;;;;1.98;100.00;95752.06;7400272;19;20382;-90
2023/12/09 05:01:11;;;;;;;82.90;30.03;;;;;;;1.27;100.00;95642.56;7398179;19;20418;-90
2023/12/09 05:03:39;;;;;;;64.67;30.70;;;;;;;1.77;100.00;95729.78;7398478;19;20375;-90
2023/12/09 05:06:08;;;;;;;80.47;33.13;;;;;;;0.57;100.00;95537.00;7398677;19;20371;-90
2023/12/09 05:08:35;;;;;;;83.67;33.53;;;;;;;0.97;100.00;95600.13;7399594;19;20466;-89
2023/12/09 05:11:03;;;;;;;61.33;27.13;;;;;;;1.33;100.00;95655.25;7398461;19;20383;-90
2023/12/09 05:13:30;;;;;;;59.83;27.03;;;;;;;1.03;100.00;95617.19;7398029;19;20399;-90
2023/12/09 05:15:58;;;;;;;60.57;28.70;;;;;;;1.90;100.00;95756.97;7397558;19;20381;-91
2023/12/09 05:18:26;;;;;;;56.00;25.43;;;;;;;1.07;100.00;95617.44;7398017;19;20394;-90
2023/12/09 05:20:53;;;;;;;62.10;28.30;;;;;;;1.04;100.00;95612.81;7396087;19;20407;-90
2023/12/09 05:23:21;;;;;;;59.23;24.93;;;;;;;1.71;100.00;95723.06;7398397;19;20387;-91
2023/12/09 05:25:49;;;;;;;67.30;26.47;;;;;;;1.40;100.00;95676.44;7398378;19;20386;-90
2023/12/09 05:28:17;;;;;;;58.03;26.30;;;;;;;1.73;100.00;95721.75;7397913;19;20379;-90
2023/12/09 05:30:44;;;;;;;51.00;24.23;;;;;;;1.49;100.00;95689.66;7397329;19;20413;-90
2023/12/09 05:33:12;;;;;;;51.33;24.90;;;;;;;1.48;100.00;95675.94;7397488;19;20485;-90
2023/12/09 05:35:39;;;;;;;56.13;23.97;;;;;;;1.24;100.00;95641.25;7398080;19;20403;-90
2023/12/09 05:38:07;;;;;;;56.20;23.83;;;;;;;1.89;100.00;95729.53;7397211;19;20379;-90
2023/12/09 05:40:34;;;;;;;51.77;22.97;;;;;;;1.46;100.00;95659.91;7398163;19;20378;-90
2023/12/09 05:43:02;;;;;;;48.33;27.10;;;;;;;1.60;100.00;95678.31;7397480;19;20696;-91
2023/12/09 05:45:29;;;;;;;69.07;28.47;;;;;;;1.85;100.00;95724.13;7399289;19;20372;-90
2023/12/09 05:47:57;;;;;;;66.80;29.13;;;;;;;1.70;100.00;95700.81;7397018;19;20398;-90
2023/12/09 05:50:25;;;;;;;76.07;25.87;;;;;;;1.21;100.00;95629.63;7397032;19;20395;-90
2023/12/09 05:52:53;;;;;;;68.90;30.30;;;;;;;1.38;100.00;95646.72;7397038;19;20389;-90
2023/12/09 05:55:20;;;;;;;63.60;25.50;;;;;;;1.13;100.00;95621.59;7396914;19;20391;-90
2023/12/09 05:57:48;;;;;;;67.73;26.87;;;;;;;1.49;100.00;95687.84;7395267;19;20481;-90
2023/12/09 06:00:15;;;;;;;79.30;28.57;;;;;;;1.63;100.00;95695.09;7396456;19;20403;-90
2023/12/09 06:02:43;;;;;;;65.77;27.40;;;;;;;1.33;100.00;95642.31;7395384;19;20785;-90
2023/12/09 06:05:10;;;;;;;64.23;28.97;;;;;;;1.68;100.00;95702.84;7397046;19;20390;-90
2023/12/09 06:07:38;;;;;;;98.83;26.40;;;;;;;0.54;100.00;95523.84;7396287;19;20398;-91
2023/12/09 06:10:07;;;;;;;56.33;26.33;;;;;;;1.45;100.00;95655.00;7396721;19;20426;-91
2023/12/09 06:12:34;;;;;;;50.27;23.97;;;;;;;1.53;100.00;95681.13;7395123;19;20420;-91
2023/12/09 06:15:02;;;;;;;46.83;23.03;;;;;;;2.03;100.00;95746.13;7397143;19;20359;-91
2023/12/09 06:17:30;;;;;;;49.13;24.57;;;;;;;1.50;100.00;95678.28;7397017;19;20390;-90
2023/12/09 06:19:57;;;;;;;54.40;23.20;;;;;;;1.26;100.00;95638.41;7396082;19;20370;-90
2023/12/09 06:22:24;;;;;;;51.63;23.90;;;;;;;1.56;100.00;95691.97;7394676;19;20398;-90
2023/12/09 06:24:52;;;;;;;45.60;24.57;;;;;;;1.14;100.00;95629.09;7396063;19;20406;-90
2023/12/09 06:27:20;;;;;;;41.07;21.97;;;;;;;1.09;100.00;95620.56;7396796;19;20387;-90
2023/12/09 06:29:47;;;;;;;50.60;20.83;;;;;;;1.30;100.00;95649.81;7396819;19;20399;-90
2023/12/09 06:32:15;;;;;;;55.27;22.27;;;;;;;1.40;100.00;95679.03;7395118;19;20410;-90
2023/12/09 06:34:42;;;;;;;52.10;26.53;;;;;;;1.94;100.00;95755.41;7396220;19;20823;-90
2023/12/09 06:37:10;;;;;;;57.07;26.20;;;;;;;1.52;100.00;95699.47;7398314;19;20407;-90
2023/12/09 06:39:38;;;;;;;58.40;24.60;;;;;;;1.67;100.00;95725.34;7395826;19;20724;-91
2023/12/09 06:42:05;;;;;;;52.10;23.20;;;;;;;1.62;100.00;95712.44;7395829;19;20408;-90
2023/12/09 06:44:33;;;;;;;48.30;22.10;;;;;;;1.90;100.00;95754.38;7396021;19;20374;-91
2023/12/09 06:47:00;;;;;;;52.40;26.33;;;;;;;1.69;100.00;95712.94;7396075;19;20372;-90
2023/12/09 06:49:28;;;;;;;59.00;31.30;;;;;;;1.59;100.00;95700.03;7397798;19;20363;-90
2023/12/09 06:51:55;;;;;;;51.87;24.03;;;;;;;1.92;100.00;95742.75;7394997;19;20447;-90
2023/12/09 06:54:23;;;;;;;40.83;20.70;;;;;;;1.68;100.00;95702.84;7395450;19;20358;-90
2023/12/09 06:56:51;;;;;;;45.40;23.97;;;;;;;2.09;100.00;95750.25;7394081;19;20394;-90
2023/12/09 06:59:19;;;;;;;44.07;24.30;;;;;;;1.81;100.00;95707.53;7395251;19;20396;-91
2023/12/09 07:01:49;;;;;;;44.50;27.60;;;;;;;1.40;100.00;95642.84;7392772;19;20489;-90
2023/12/09 07:04:17;;;;;;;37.83;22.47;;;;;;;1.36;100.00;95625.53;7396372;19;20395;-90
2023/12/09 07:06:44;;;;;;;37.10;21.57;;;;;;;1.64;100.00;95678.56;7404365;19;20372;-90
2023/12/09 07:09:12;;;;;;;39.93;23.20;;;;;;;1.48;100.00;95638.97;7404245;19;20426;-91
2023/12/09 07:11:40;;;;;;;39.90;22.60;;;;;;;1.35;100.00;95619.56;7401775;19;20851;-90
2023/12/09 07:14:09;;;;;;;38.33;21.77;;;;;;;1.53;100.00;95652.69;7404022;19;20364;-90
2023/12/09 07:16:37;;;;;;;40.87;20.70;;;;;;;1.40;100.00;95637.66;7402818;19;20465;-90
2023/12/09 07:19:06;;;;;;;41.00;19.90;;;;;;;1.28;100.00;95615.66;7402859;19;20379;-90
2023/12/09 07:21:33;;;;;;;43.57;21.17;;;;;;;1.23;100.00;95611.28;7400107;19;20436;-91
2023/12/09 07:24:01;;;;;;;45.80;21.30;;;;;;;2.01;100.00;95715.31;7402292;19;20412;-90
2023/12/09 07:26:30;;;;;;;35.80;20.10;;;;;;;0.55;100.00;95497.75;7402070;19;20370;-90
2023/12/09 07:29:03;;;;;;;40.37;22.87;;;;;;;1.76;100.00;95666.16;7401971;19;20396;-90
2023/12/09 07:31:31;;;;;;;38.60;21.37;;;;;;;1.94;100.00;95680.38;7401436;19;20409;-90
2023/12/09 07:33:59;;;;;;;37.63;21.83;;;;;;;0.78;100.00;95519.00;7403479;19;20858;-90
2023/12/09 07:36:26;;;;;;;36.00;20.23;;;;;;;0.98;100.00;95546.66;7403647;19;20682;-90
2023/12/09 07:38:54;;;;;;;37.93;21.17;;;;;;;1.53;100.00;95651.91;7401874;19;20836;-90
2023/12/09 07:41:22;;;;;;;39.40;23.03;;;;;;;1.48;100.00;95644.94;7399385;19;20428;-90
2023/12/09 07:43:49;;;;;;;50.77;26.87;;;;;;;0.91;100.00;95559.81;7401733;19;20674;-90
2023/12/09 07:46:17;;;;;;;50.53;26.50;;;;;;;1.53;100.00;95657.06;7402835;19;20350;-90
2023/12/09 07:48:44;;;;;;;54.50;28.13;;;;;;;2.04;100.00;95735.50;7401114;19;20363;-90
2023/12/09 07:51:12;;;;;;;51.40;28.23;;;;;;;1.70;100.00;95677.53;7400548;19;20406;-90
2023/12/09 07:53:39;;;;;;;45.53;27.53;;;;;;;1.39;100.00;95630.16;7401137;19;20761;-90
2023/12/09 07:56:07;;;;;;;44.50;28.50;;;;;;;1.73;100.00;95680.38;7401234;19;20370;-91
2023/12/09 07:58:35;;;;;;;49.53;25.90;;;;;;;1.42;100.00;95627.06;7402717;19;20366;-90
2023/12/09 08:01:02;;;;;;;48.33;22.90;;;;;;;2.04;100.00;95711.44;7399552;19;20416;-90
2023/12/09 08:03:34;;;;;;;47.90;26.00;;;;;;;2.01;100.00;95730.84;7400586;19;20384;-90
2023/12/09 08:06:02;;;;;;;43.93;25.00;;;;;;;1.51;100.00;95652.16;7400298;19;20375;-91
2023/12/09 08:08:30;;;;;;;47.47;25.23;;;;;;;1.51;100.00;95647.00;7400348;19;20381;-90
2023/12/09 08:10:59;;;;;;;45.80;23.07;;;;;;;1.75;100.00;95672.38;7400453;19;20422;-90
2023/12/09 08:13:27;;;;;;;50.00;27.17;;;;;;;1.87;100.00;95692.81;7401392;19;20403;-90
2023/12/09 08:15:54;;;;;;;46.30;23.50;;;;;;;1.52;100.00;95650.34;7403045;19;20374;-92
2023/12/09 08:18:22;;;;;;;48.07;24.70;;;;;;;1.66;100.00;95672.09;7400490;19;20457;-91
2023/12/09 08:20:49;;;;;;;49.77;24.77;;;;;;;1.70;100.00;95667.19;7398877;19;20996;-91
2023/12/09 08:23:17;;;;;;;46.13;23.63;;;;;;;1.75;100.00;95670.56;7400039;19;20413;-91
2023/12/09 08:25:44;;;;;;;49.93;25.27;;;;;;;1.75;100.00;95636.94;7400337;19;20354;-91
2023/12/09 08:28:12;;;;;;;56.37;29.50;;;;;;;1.74;100.00;95647.53;7399843;19;20388;-91
2023/12/09 08:30:39;;;;;;;59.97;33.73;;;;;;;1.72;100.00;95655.56;7399427;19;20866;-91
2023/12/09 08:33:07;;;;;;;57.80;26.40;;;;;;;1.93;100.00;95678.84;7399779;19;20854;-91
2023/12/09 08:35:35;;;;;;;61.47;29.03;;;;;;;1.89;100.00;95685.56;7401146;19;20368;-91
2023/12/09 08:38:07;;;;;;;38.83;23.43;;;;;;;2.03;100.00;95697.72;7399833;19;20382;-91
2023/12/09 08:40:34;;;;;;;52.50;25.53;;;;;;;1.41;100.00;95604.84;7398683;19;20387;-91
2023/12/09 08:43:02;;;;;;;56.40;29.00;;;;;;;1.90;100.00;95672.38;7399803;19;20383;-91
2023/12/09 08:45:31;;;;;;;52.90;29.13;;;;;;;1.89;100.00;95670.03;7399720;19;20355;-91
2023/12/09 08:47:59;;;;;;;50.30;26.20;;;;;;;1.71;100.00;95632.53;7399100;19;20463;-91
2023/12/09 08:50:27;;;;;;;44.50;22.73;;;;;;;1.82;100.00;95640.03;7399311;19;20403;-91
2023/12/09 08:52:54;;;;;;;49.77;25.30;;;;;;;2.06;100.00;95668.75;7399884;19;20370;-91
2023/12/09 08:55:22;;;;;;;58.67;31.40;;;;;;;1.81;100.00;95629.94;7399349;19;20400;-91
2023/12/09 08:57:51;;;;;;;55.40;35.90;;;;;;;2.18;100.00;95680.63;7397290;19;20814;-91
2023/12/09 09:00:22;;;;;;;61.57;32.13;;;;;;;1.87;100.00;95635.91;7400215;19;20383;-91
2023/12/09 09:02:50;;;;;;;50.77;29.87;;;;;;;2.42;100.00;95729.03;7400928;19;20406;-91
2023/12/09 09:05:17;;;;;;;50.00;25.70;;;;;;;1.81;100.00;95646.22;7401419;19;20393;-91
2023/12/09 09:07:45;;;;;;;43.77;24.27;;;;;;;1.75;100.00;95636.16;7400283;19;20375;-91
2023/12/09 09:10:13;;;;;;;45.13;24.57;;;;;;;1.91;100.00;95670.56;7398065;19;20398;-91
2023/12/09 09:12:43;;;;;;;55.33;27.13;;;;;;;1.59;100.00;95622.44;7397384;19;20498;-91
2023/12/09 09:15:17;;;;;;;61.40;29.10;;;;;;;1.72;100.00;95647.78;7398403;19;20378;-91
2023/12/09 09:17:45;;;;;;;53.03;24.70;;;;;;;1.80;100.00;95644.69;7398194;19;20375;-91
2023/12/09 09:20:12;;;;;;;43.17;24.17;;;;;;;2.04;100.00;95664.88;7397970;19;20378;-91
2023/12/09 09:22:41;;;;;;;45.80;24.80;;;;;;;1.64;100.00;95594.00;7395888;19;20418;-91
2023/12/09 09:25:15;;;;;;;48.30;25.90;;;;;;;1.80;100.00;95613.63;7397937;19;20872;-91
2023/12/09 09:27:42;;;;;;;51.93;25.43;;;;;;;1.94;100.00;95623.47;7396506;19;20880;-91
2023/12/09 09:30:10;;;;;;;57.10;24.57;;;;;;;1.81;100.00;95606.66;7397356;19;20434;-91
2023/12/09 09:32:38;;;;;;;48.80;27.77;;;;;;;2.04;100.00;95619.06;7395817;19;20404;-91
2023/12/09 09:35:07;;;;;;;49.40;27.47;;;;;;;2.20;100.00;95644.91;7397113;19;20373;-91
2023/12/09 09:37:35;;;;;;;47.50;26.43;;;;;;;2.02;100.00;95584.13;7399068;19;20382;-90
2023/12/09 09:40:04;;;;;;;43.30;25.77;;;;;;;2.18;100.00;95631.47;7397745;19;20386;-90
2023/12/09 09:42:55;;;;;;;48.37;24.70;;;;;;;2.19;100.00;95641.56;7395930;19;20373;-89
2023/12/09 09:45:24;;;;;;;43.17;22.93;;;;;;;2.17;100.00;95643.63;7397118;19;20886;-90
2023/12/09 09:48:03;;;;;;;50.97;25.03;;;;;;;2.17;100.00;95622.16;7398616;19;20409;-89
2023/12/09 09:50:43;;;;;;;39.90;23.83;;;;;;;1.85;100.00;95583.66;7397596;19;20382;-89
2023/12/09 09:53:13;;;;;;;44.70;24.30;;;;;;;2.18;100.00;95621.88;7397447;19;20378;-90
2023/12/09 09:55:43;;;;;;;46.03;26.37;;;;;;;1.82;100.00;95553.88;7397513;19;20374;-92
2023/12/09 09:58:12;;;;;;;51.60;25.20;;;;;;;2.01;100.00;95585.19;7395423;19;20398;-92
2023/12/09 10:00:40;;;;;;;54.43;30.60;;;;;;;2.56;100.00;95663.75;7396349;19;20407;-92
2023/12/09 10:03:08;;;;;;;52.60;25.30;;;;;;;2.42;100.00;95653.94;7397351;19;20403;-88
2023/12/09 10:05:35;;;;;;;48.83;26.30;;;;;;;2.27;100.00;95617.75;7397076;19;20370;-90
2023/12/09 10:08:03;;;;;;;52.23;26.10;;;;;;;2.05;100.00;95557.72;7398603;19;20367;-90
2023/12/09 10:10:33;;;;;;;40.33;24.10;;;;;;;2.23;100.00;95588.25;7396378;19;20379;-90
2023/12/09 10:13:01;;;;;;;44.43;26.53;;;;;;;1.80;100.00;95525.69;7396232;19;20379;-90
2023/12/09 10:15:28;;;;;;;47.40;24.20;;;;;;;2.02;100.00;95545.31;7397690;19;20362;-89
2023/12/09 10:18:11;;;;;;;48.83;25.33;;;;;;;2.56;100.00;95630.09;7399067;19;20378;-92
2023/12/09 10:20:39;;;;;;;49.07;25.43;;;;;;;1.58;100.00;95475.31;7397651;19;20867;-94
2023/12/09 10:23:08;;;;;;;53.07;27.33;;;;;;;1.71;100.00;95490.31;7398504;19;20401;-94
2023/12/09 10:25:35;;;;;;;57.03;25.40;;;;;;;2.36;100.00;95572.16;7397091;19;20387;-94
2023/12/09 10:28:07;;;;;;;42.63;26.27;;;;;;;2.13;100.00;95540.91;7397418;19;20377;-94
2023/12/09 10:30:36;;;;;;;57.57;29.50;;;;;;;2.04;100.00;95536.25;7397629;19;20378;-94
2023/12/09 10:33:05;;;;;;;53.40;26.67;;;;;;;1.63;100.00;95449.44;7397895;19;20699;-95
2023/12/09 10:35:34;;;;;;;54.23;26.80;;;;;;;2.51;100.00;95593.84;7397392;19;20695;-94
2023/12/09 10:38:04;;;;;;;57.77;27.33;;;;;;;2.58;100.00;95595.09;7397663;19;20854;-95
2023/12/09 10:40:38;;;;;;;58.17;28.93;;;;;;;2.29;100.00;95545.00;7401291;19;20377;-94
2023/12/09 10:43:06;;;;;;;63.93;28.67;;;;;;;2.03;100.00;95495.91;7404459;19;20385;-95
2023/12/09 10:45:36;;;;;;;56.73;26.77;;;;;;;2.61;100.00;95555.72;7404617;19;20378;-94
2023/12/09 10:48:11;;;;;;;49.33;26.97;;;;;;;2.06;100.00;95469.47;7404857;19;20370;-95
2023/12/09 10:50:46;;;;;;;55.33;26.30;;;;;;;2.55;100.00;95549.03;7403421;19;20379;-94
2023/12/09 10:53:14;;;;;;;69.73;29.40;;;;;;;2.08;100.00;95451.09;7403934;19;20391;-95
2023/12/09 10:55:44;;;;;;;42.07;23.60;;;;;;;2.95;100.00;95586.16;7403864;19;20383;-95
2023/12/09 10:58:20;;;;;;;44.83;24.37;;;;;;;2.93;100.00;95593.41;7401486;19;20400;-95
2023/12/09 11:00:50;;;;;;;54.90;28.00;;;;;;;1.92;100.00;95447.81;7403326;19;20703;-95
2023/12/09 11:03:24;;;;;;;45.30;25.60;;;;;;;2.60;100.00;95525.69;7404102;19;20385;-95
2023/12/09 11:05:55;;;;;;;52.80;27.97;;;;;;;3.00;100.00;95573.94;7403809;19;20368;-95
2023/12/09 11:08:29;;;;;;;45.30;24.63;;;;;;;3.01;100.00;95572.09;7403624;19;20362;-95
2023/12/09 11:10:57;;;;;;;58.60;26.40;;;;;;;2.66;100.00;95508.31;7402250;19;20418;-93
2023/12/09 11:13:30;;;;;;;46.23;24.87;;;;;;;3.09;100.00;95563.00;7403116;19;20382;-94
2023/12/09 11:16:20;;;;;;;66.50;28.03;;;;;;;3.04;100.00;95553.44;7402972;19;20888;-93
2023/12/09 11:18:58;;;;;;;49.73;26.00;;;;;;;3.16;100.00;95556.47;7403118;19;20900;-93
2023/12/09 11:21:37;;;;;;;49.03;25.07;;;;;;;3.29;100.00;95536.94;7402904;19;20415;-94
2023/12/09 11:24:18;;;;;;;52.93;27.23;;;;;;;3.52;100.00;95551.03;7403842;19;20378;-95